sensor_id;sensor_type;location;lat;lon;timestamp;pressure;altitude;pressure_sealevel;temperature;humidity
5350;BME280;2697;42.144;24.794;2023-12-29T00:01:46;142380.84;;;3.18;100.00
5350;BME280;2697;42.144;24.794;2023-12-29T00:04:11;143751.41;;;3.16;100.00
5350;BME280;2697;42.144;24.794;2023-12-29T00:06:40;141017.84;;;3.22;100.00
5350;BME280;2697;42.144;24.794;2023-12-29T00:09:06;152440.94;;;3.60;100.00
5350;BME280;2697;42.144;24.794;2023-12-29T00:11:32;153534.25;;;3.76;100.00
5350;BME280;2697;42.144;24.794;2023-12-29T00:13:57;153547.31;;;3.81;100.00
5350;BME280;2697;42.144;24.794;2023-12-29T00:16:23;153510.69;;;3.66;100.00
5350;BME280;2697;42.144;24.794;2023-12-29T00:18:48;153466.19;;;3.49;100.00
5350;BME280;2697;42.144;24.794;2023-12-29T00:21:14;153526.41;;;3.72;100.00
5350;BME280;2697;42.144;24.794;2023-12-29T00:23:39;153508.06;;;3.65;100.00
5350;BME280;2697;42.144;24.794;2023-12-29T00:26:05;153498.88;;;3.62;100.00
5350;BME280;2697;42.144;24.794;2023-12-29T00:28:30;153500.19;;;3.62;100.00
5350;BME280;2697;42.144;24.794;2023-12-29T00:30:56;153519.84;;;3.70;100.00
5350;BME280;2697;42.144;24.794;2023-12-29T00:33:21;153487.13;;;3.57;100.00
5350;BME280;2697;42.144;24.794;2023-12-29T00:35:46;153449.13;;;3.42;100.00
5350;BME280;2697;42.144;24.794;2023-12-29T00:38:12;153451.75;;;3.43;100.00
5350;BME280;2697;42.144;24.794;2023-12-29T00:40:37;153450.44;;;3.43;100.00
5350;BME280;2697;42.144;24.794;2023-12-29T00:43:03;153408.59;;;3.27;100.00
5350;BME280;2697;42.144;24.794;2023-12-29T00:45:28;153354.91;;;3.06;100.00
5350;BME280;2697;42.144;24.794;2023-12-29T00:47:58;153336.63;;;2.99;100.00
5350;BME280;2697;42.144;24.794;2023-12-29T00:50:23;153303.88;;;2.86;100.00
5350;BME280;2697;42.144;24.794;2023-12-29T00:52:49;153273.81;;;2.74;100.00
5350;BME280;2697;42.144;24.794;2023-12-29T00:55:14;153255.50;;;2.67;100.00
5350;BME280;2697;42.144;24.794;2023-12-29T00:57:40;153248.97;;;2.65;100.00
5350;BME280;2697;42.144;24.794;2023-12-29T01:00:07;153259.41;;;2.69;100.00
5350;BME280;2697;42.144;24.794;2023-12-29T01:02:33;153271.19;;;2.73;100.00
5350;BME280;2697;42.144;24.794;2023-12-29T01:04:58;153292.13;;;2.81;100.00
5350;BME280;2697;42.144;24.794;2023-12-29T01:07:24;153293.44;;;2.82;100.00
5350;BME280;2697;42.144;24.794;2023-12-29T01:09:49;153264.66;;;2.71;100.00
5350;BME280;2697;42.144;24.794;2023-12-29T01:12:14;153192.72;;;2.43;100.00
5350;BME280;2697;42.144;24.794;2023-12-29T01:14:40;153143.06;;;2.23;100.00
5350;BME280;2697;42.144;24.794;2023-12-29T01:17:05;151830.81;;;1.94;100.00
5350;BME280;2697;42.144;24.794;2023-12-29T01:19:31;144157.81;;;1.70;100.00
5350;BME280;2697;42.144;24.794;2023-12-29T01:21:56;136506.00;;;1.51;100.00
5350;BME280;2697;42.144;24.794;2023-12-29T01:24:22;128943.00;;;1.30;100.00
5350;BME280;2697;42.144;24.794;2023-12-29T01:26:47;120385.38;;;1.14;100.00
5350;BME280;2697;42.144;24.794;2023-12-29T01:29:13;111190.63;;;1.08;100.00
5350;BME280;2697;42.144;24.794;2023-12-29T01:31:39;108136.81;;;1.10;100.00
5350;BME280;2697;42.144;24.794;2023-12-29T01:34:04;102999.22;;;0.82;100.00
5350;BME280;2697;42.144;24.794;2023-12-29T01:36:30;96532.84;;;0.62;100.00
5350;BME280;2697;42.144;24.794;2023-12-29T01:38:55;89084.94;;;0.53;100.00
5350;BME280;2697;42.144;24.794;2023-12-29T01:41:21;83682.78;;;0.50;100.00
5350;BME280;2697;42.144;24.794;2023-12-29T01:46:31;72555.75;;;0.36;100.00
5350;BME280;2697;42.144;24.794;2023-12-29T01:48:59;68849.66;;;0.27;100.00
5350;BME280;2697;42.144;24.794;2023-12-29T01:51:26;67178.72;;;0.34;100.00
5350;BME280;2697;42.144;24.794;2023-12-29T01:53:52;65506.44;;;0.39;100.00
5350;BME280;2697;42.144;24.794;2023-12-29T01:56:19;63495.94;;;0.41;100.00
5350;BME280;2697;42.144;24.794;2023-12-29T01:58:46;61493.13;;;0.49;100.00
5350;BME280;2697;42.144;24.794;2023-12-29T02:01:14;58809.50;;;0.47;100.00
5350;BME280;2697;42.144;24.794;2023-12-29T02:03:40;57483.41;;;0.61;100.00
5350;BME280;2697;42.144;24.794;2023-12-29T02:06:06;55160.94;;;0.84;100.00
5350;BME280;2697;42.144;24.794;2023-12-29T02:08:32;54833.06;;;0.92;100.00
5350;BME280;2697;42.144;24.794;2023-12-29T02:10:57;56161.00;;;0.79;100.00
5350;BME280;2697;42.144;24.794;2023-12-29T02:13:23;57167.00;;;0.80;100.00
5350;BME280;2697;42.144;24.794;2023-12-29T02:15:54;60503.50;;;0.65;100.00
5350;BME280;2697;42.144;24.794;2023-12-29T02:18:24;61847.38;;;0.68;100.00
5350;BME280;2697;42.144;24.794;2023-12-29T02:20:50;61848.97;;;0.69;100.00
5350;BME280;2697;42.144;24.794;2023-12-29T02:23:16;61185.03;;;0.76;100.00
5350;BME280;2697;42.144;24.794;2023-12-29T02:25:41;60858.00;;;0.84;100.00
5350;BME280;2697;42.144;24.794;2023-12-29T02:31:07;60852.28;;;0.78;100.00
5350;BME280;2697;42.144;24.794;2023-12-29T02:33:38;60509.69;;;0.71;100.00
5350;BME280;2697;42.144;24.794;2023-12-29T02:36:05;59835.59;;;0.68;100.00
5350;BME280;2697;42.144;24.794;2023-12-29T02:38:32;59159.66;;;0.62;100.00
5350;BME280;2697;42.144;24.794;2023-12-29T02:40:58;57836.69;;;0.80;100.00
5350;BME280;2697;42.144;24.794;2023-12-29T02:43:24;56492.13;;;0.75;100.00
5350;BME280;2697;42.144;24.794;2023-12-29T02:45:49;54159.09;;;0.88;100.00
5350;BME280;2697;42.144;24.794;2023-12-29T02:48:15;52497.34;;;1.01;100.00
5350;BME280;2697;42.144;24.794;2023-12-29T02:50:40;52162.59;;;1.01;100.00
5350;BME280;2697;42.144;24.794;2023-12-29T02:53:06;52497.78;;;1.02;100.00
5350;BME280;2697;42.144;24.794;2023-12-29T02:55:31;53824.72;;;0.88;100.00
5350;BME280;2697;42.144;24.794;2023-12-29T02:57:57;53822.44;;;0.85;100.00
5350;BME280;2697;42.144;24.794;2023-12-29T03:00:22;54495.34;;;0.89;100.00
5350;BME280;2697;42.144;24.794;2023-12-29T03:02:48;54165.59;;;0.95;100.00
5350;BME280;2697;42.144;24.794;2023-12-29T03:05:14;54171.59;;;1.01;100.00
5350;BME280;2697;42.144;24.794;2023-12-29T03:07:39;54498.59;;;0.93;100.00
5350;BME280;2697;42.144;24.794;2023-12-29T03:10:06;54832.59;;;0.92;100.00
5350;BME280;2697;42.144;24.794;2023-12-29T03:12:32;51821.66;;;0.94;100.00
5350;BME280;2697;42.144;24.794;2023-12-29T03:14:58;48160.41;;;1.17;100.00
5350;BME280;2697;42.144;24.794;2023-12-29T03:17:23;46831.06;;;1.28;100.00
5350;BME280;2697;42.144;24.794;2023-12-29T03:19:48;46494.66;;;1.25;100.00
5350;BME280;2697;42.144;24.794;2023-12-29T03:22:14;46822.25;;;1.17;100.00
5350;BME280;2697;42.144;24.794;2023-12-29T03:24:42;48159.59;;;1.16;100.00
5350;BME280;2697;42.144;24.794;2023-12-29T03:27:08;49151.81;;;1.02;100.00
5350;BME280;2697;42.144;24.794;2023-12-29T03:29:33;50173.06;;;1.23;100.00
5350;BME280;2697;42.144;24.794;2023-12-29T03:31:59;51853.13;;;1.30;100.00
5350;BME280;2697;42.144;24.794;2023-12-29T03:34:24;52201.41;;;1.46;100.00
5350;BME280;2697;42.144;24.794;2023-12-29T03:36:50;53871.19;;;1.39;100.00
5350;BME280;2697;42.144;24.794;2023-12-29T03:39:15;54865.38;;;1.27;100.00
5350;BME280;2697;42.144;24.794;2023-12-29T03:41:40;54211.41;;;1.45;100.00
5350;BME280;2697;42.144;24.794;2023-12-29T03:44:06;57567.91;;;1.49;100.00
5350;BME280;2697;42.144;24.794;2023-12-29T03:46:31;62912.69;;;1.24;100.00
5350;BME280;2697;42.144;24.794;2023-12-29T03:48:58;63584.84;;;1.24;100.00
5350;BME280;2697;42.144;24.794;2023-12-29T03:51:23;65276.66;;;1.35;100.00
5350;BME280;2697;42.144;24.794;2023-12-29T03:53:49;68612.19;;;1.12;100.00
5350;BME280;2697;42.144;24.794;2023-12-29T03:56:16;70610.03;;;0.96;100.00
5350;BME280;2697;42.144;24.794;2023-12-29T03:58:42;70576.31;;;0.67;100.00
5350;BME280;2697;42.144;24.794;2023-12-29T04:01:14;68567.72;;;0.74;100.00
5350;BME280;2697;42.144;24.794;2023-12-29T04:03:40;68553.09;;;0.61;100.00
5350;BME280;2697;42.144;24.794;2023-12-29T04:06:06;68869.06;;;0.44;100.00
5350;BME280;2697;42.144;24.794;2023-12-29T04:08:33;67175.28;;;0.31;100.00
5350;BME280;2697;42.144;24.794;2023-12-29T04:10:58;64487.84;;;0.27;100.00
5350;BME280;2697;42.144;24.794;2023-12-29T04:13:24;62156.25;;;0.42;100.00
5350;BME280;2697;42.144;24.794;2023-12-29T04:15:49;64498.31;;;0.37;100.00
5350;BME280;2697;42.144;24.794;2023-12-29T04:18:14;65155.34;;;0.24;100.00
5350;BME280;2697;42.144;24.794;2023-12-29T04:20:40;64809.97;;;0.15;100.00
5350;BME280;2697;42.144;24.794;2023-12-29T04:23:06;62801.63;;;0.18;100.00
5350;BME280;2697;42.144;24.794;2023-12-29T04:25:33;62122.31;;;0.10;100.00
5350;BME280;2697;42.144;24.794;2023-12-29T04:27:58;62781.25;;;-0.01;100.00
5350;BME280;2697;42.144;24.794;2023-12-29T04:30:24;59088.97;;;-0.09;100.00
5350;BME280;2697;42.144;24.794;2023-12-29T04:32:49;55753.56;;;0.02;100.00
5350;BME280;2697;42.144;24.794;2023-12-29T04:35:15;56419.75;;;-0.01;100.00
5350;BME280;2697;42.144;24.794;2023-12-29T04:37:44;57065.00;;;-0.26;100.00
5350;BME280;2697;42.144;24.794;2023-12-29T04:40:13;55718.31;;;-0.36;100.00
5350;BME280;2697;42.144;24.794;2023-12-29T04:42:38;54389.72;;;-0.26;100.00
5350;BME280;2697;42.144;24.794;2023-12-29T04:45:04;53405.84;;;-0.06;100.00
5350;BME280;2697;42.144;24.794;2023-12-29T04:47:30;52410.78;;;0.03;100.00
5350;BME280;2697;42.144;24.794;2023-12-29T04:49:56;52417.06;;;0.10;100.00
5350;BME280;2697;42.144;24.794;2023-12-29T04:52:21;52083.69;;;0.11;100.00
5350;BME280;2697;42.144;24.794;2023-12-29T04:54:46;51413.47;;;0.09;100.00
5350;BME280;2697;42.144;24.794;2023-12-29T04:57:12;50747.78;;;0.12;100.00
5350;BME280;2697;42.144;24.794;2023-12-29T04:59:37;51067.53;;;-0.05;100.00
5350;BME280;2697;42.144;24.794;2023-12-29T05:02:03;50404.19;;;0.01;100.00
5350;BME280;2697;42.144;24.794;2023-12-29T05:04:28;50067.56;;;-0.02;100.00
5350;BME280;2697;42.144;24.794;2023-12-29T05:06:53;50727.81;;;-0.11;100.00
5350;BME280;2697;42.144;24.794;2023-12-29T05:09:19;49731.44;;;-0.05;100.00
5350;BME280;2697;42.144;24.794;2023-12-29T05:11:45;47081.19;;;0.21;100.00
5350;BME280;2697;42.144;24.794;2023-12-29T05:14:11;46419.84;;;0.30;100.00
5350;BME280;2697;42.144;24.794;2023-12-29T05:16:36;47076.75;;;0.16;100.00
5350;BME280;2697;42.144;24.794;2023-12-29T05:19:02;47071.94;;;0.10;100.00
5350;BME280;2697;42.144;24.794;2023-12-29T05:21:27;47073.94;;;0.12;100.00
5350;BME280;2697;42.144;24.794;2023-12-29T05:23:52;47074.75;;;0.13;100.00
5350;BME280;2697;42.144;24.794;2023-12-29T05:26:18;47733.47;;;0.02;100.00
5350;BME280;2697;42.144;24.794;2023-12-29T05:28:44;48733.00;;;-0.01;100.00
5350;BME280;2697;42.144;24.794;2023-12-29T05:31:09;49724.22;;;-0.13;100.00
5350;BME280;2697;42.144;24.794;2023-12-29T05:33:35;49078.28;;;0.13;100.00
5350;BME280;2697;42.144;24.794;2023-12-29T05:36:08;52732.41;;;-0.11;100.00
5350;BME280;2697;42.144;24.794;2023-12-29T05:38:34;55078.00;;;-0.05;100.00
5350;BME280;2697;42.144;24.794;2023-12-29T05:41:00;57747.81;;;-0.12;100.00
5350;BME280;2697;42.144;24.794;2023-12-29T05:43:33;58412.59;;;-0.16;100.00
5350;BME280;2697;42.144;24.794;2023-12-29T05:46:00;59406.97;;;-0.26;100.00
5350;BME280;2697;42.144;24.794;2023-12-29T05:48:25;58733.16;;;-0.31;100.00
5350;BME280;2697;42.144;24.794;2023-12-29T05:50:51;60408.47;;;-0.29;100.00
5350;BME280;2697;42.144;24.794;2023-12-29T05:53:17;62095.78;;;-0.16;100.00
5350;BME280;2697;42.144;24.794;2023-12-29T05:55:45;63750.72;;;-0.35;100.00
5350;BME280;2697;42.144;24.794;2023-12-29T05:58:11;62077.75;;;-0.33;100.00
5350;BME280;2697;42.144;24.794;2023-12-29T06:00:37;58733.16;;;-0.31;100.00
5350;BME280;2697;42.144;24.794;2023-12-29T06:03:03;56721.81;;;-0.35;100.00
5350;BME280;2697;42.144;24.794;2023-12-29T06:05:29;54397.16;;;-0.18;100.00
5350;BME280;2697;42.144;24.794;2023-12-29T06:07:55;52725.63;;;-0.19;100.00
5350;BME280;2697;42.144;24.794;2023-12-29T06:10:20;50402.44;;;-0.01;100.00
5350;BME280;2697;42.144;24.794;2023-12-29T06:12:46;48418.59;;;0.23;100.00
5350;BME280;2697;42.144;24.794;2023-12-29T06:15:12;47753.09;;;0.26;100.00
5350;BME280;2697;42.144;24.794;2023-12-29T06:17:38;46416.66;;;0.25;100.00
5350;BME280;2697;42.144;24.794;2023-12-29T06:20:06;44755.44;;;0.36;100.00
5350;BME280;2697;42.144;24.794;2023-12-29T06:22:32;43093.63;;;0.45;100.00
5350;BME280;2697;42.144;24.794;2023-12-29T06:24:57;41431.31;;;0.53;100.00
5350;BME280;2697;42.144;24.794;2023-12-29T06:27:23;40102.06;;;0.60;100.00
5350;BME280;2697;42.144;24.794;2023-12-29T06:29:48;39102.69;;;0.62;100.00
5350;BME280;2697;42.144;24.794;2023-12-29T06:32:14;38439.84;;;0.68;100.00
5350;BME280;2697;42.144;24.794;2023-12-29T06:34:40;37443.94;;;0.74;100.00
5350;BME280;2697;42.144;24.794;2023-12-29T06:37:05;37441.06;;;0.70;100.00
5350;BME280;2697;42.144;24.794;2023-12-29T06:39:31;35448.59;;;0.81;100.00
5350;BME280;2697;42.144;24.794;2023-12-29T06:41:56;35459.59;;;1.00;100.00
5350;BME280;2697;42.144;24.794;2023-12-29T06:44:21;34804.97;;;1.20;100.00
5350;BME280;2697;42.144;24.794;2023-12-29T06:46:47;35804.63;;;1.19;100.00
5350;BME280;2697;42.144;24.794;2023-12-29T06:49:12;36123.19;;;0.95;100.00
5350;BME280;2697;42.144;24.794;2023-12-29T06:51:38;37490.66;;;1.48;100.00
5350;BME280;2697;42.144;24.794;2023-12-29T06:54:06;39164.19;;;1.55;100.00
5350;BME280;2697;42.144;24.794;2023-12-29T06:56:32;41508.16;;;1.63;100.00
5350;BME280;2697;42.144;24.794;2023-12-29T06:58:57;42177.31;;;1.64;100.00
5350;BME280;2697;42.144;24.794;2023-12-29T07:01:23;43514.16;;;1.63;100.00
5350;BME280;2697;42.144;24.794;2023-12-29T07:03:48;43868.06;;;1.90;100.00
5350;BME280;2697;42.144;24.794;2023-12-29T07:06:13;47531.31;;;1.67;100.00
5350;BME280;2697;42.144;24.794;2023-12-29T07:08:39;48208.22;;;1.76;100.00
5350;BME280;2697;42.144;24.794;2023-12-29T07:11:09;50901.22;;;1.92;100.00
5350;BME280;2697;42.144;24.794;2023-12-29T07:13:36;61317.78;;;2.05;100.00
5350;BME280;2697;42.144;24.794;2023-12-29T07:16:01;71747.28;;;2.03;100.00
5350;BME280;2697;42.144;24.794;2023-12-29T07:18:27;78487.50;;;1.99;100.00
5350;BME280;2697;42.144;24.794;2023-12-29T07:20:52;79840.47;;;2.01;100.00
5350;BME280;2697;42.144;24.794;2023-12-29T07:23:17;80535.00;;;2.15;100.00
5350;BME280;2697;42.144;24.794;2023-12-29T07:25:43;83231.69;;;2.11;100.00
5350;BME280;2697;42.144;24.794;2023-12-29T07:28:08;81192.59;;;2.02;100.00
5350;BME280;2697;42.144;24.794;2023-12-29T07:30:34;75788.97;;;1.99;100.00
5350;BME280;2697;42.144;24.794;2023-12-29T07:32:59;71763.19;;;2.16;100.00
5350;BME280;2697;42.144;24.794;2023-12-29T07:35:24;72108.81;;;2.23;100.00
5350;BME280;2697;42.144;24.794;2023-12-29T07:37:50;71126.13;;;2.47;100.00
5350;BME280;2697;42.144;24.794;2023-12-29T07:40:15;69803.28;;;2.69;100.00
5350;BME280;2697;42.144;24.794;2023-12-29T07:42:41;69140.81;;;2.79;100.00
5350;BME280;2697;42.144;24.794;2023-12-29T07:45:08;71513.22;;;2.89;100.00
5350;BME280;2697;42.144;24.794;2023-12-29T07:47:34;71535.75;;;3.07;100.00
5350;BME280;2697;42.144;24.794;2023-12-29T07:49:59;71570.47;;;3.36;100.00
5350;BME280;2697;42.144;24.794;2023-12-29T07:52:25;72250.19;;;3.40;100.00
5350;BME280;2697;42.144;24.794;2023-12-29T07:54:50;71925.91;;;3.51;100.00
5350;BME280;2697;42.144;24.794;2023-12-29T07:57:16;78707.59;;;3.66;100.00
5350;BME280;2697;42.144;24.794;2023-12-29T07:59:41;84488.41;;;3.83;100.00
5350;BME280;2697;42.144;24.794;2023-12-29T08:02:06;86210.28;;;4.01;100.00
5350;BME280;2697;42.144;24.794;2023-12-29T08:04:32;98482.06;;;4.25;100.00
5350;BME280;2697;42.144;24.794;2023-12-29T08:06:57;117603.66;;;4.31;100.00
5350;BME280;2697;42.144;24.794;2023-12-29T08:09:23;147756.06;;;4.43;100.00
5350;BME280;2697;42.144;24.794;2023-12-29T08:11:49;153733.31;;;4.53;100.00
5350;BME280;2697;42.144;24.794;2023-12-29T08:14:14;153764.75;;;4.65;100.00
5350;BME280;2697;42.144;24.794;2023-12-29T08:16:40;153851.25;;;4.99;100.00
5350;BME280;2697;42.144;24.794;2023-12-29T08:19:08;153911.59;;;5.22;100.00
5350;BME280;2697;42.144;24.794;2023-12-29T08:21:35;153931.22;;;5.30;100.00
5350;BME280;2697;42.144;24.794;2023-12-29T08:24:00;154020.38;;;5.64;100.00
5350;BME280;2697;42.144;24.794;2023-12-29T08:26:26;154076.81;;;5.86;100.00
5350;BME280;2697;42.144;24.794;2023-12-29T08:28:51;154108.34;;;5.98;100.00
5350;BME280;2697;42.144;24.794;2023-12-29T08:31:18;154151.63;;;6.15;100.00
5350;BME280;2697;42.144;24.794;2023-12-29T08:33:44;154118.81;;;6.03;100.00
5350;BME280;2697;42.144;24.794;2023-12-29T08:36:11;154215.91;;;6.40;100.00
5350;BME280;2697;42.144;24.794;2023-12-29T08:38:37;154239.53;;;6.49;100.00
5350;BME280;2697;42.144;24.794;2023-12-29T08:41:03;154252.66;;;6.54;100.00
5350;BME280;2697;42.144;24.794;2023-12-29T08:43:28;154286.78;;;6.68;100.00
5350;BME280;2697;42.144;24.794;2023-12-29T08:45:53;154330.09;;;6.84;100.00
5350;BME280;2697;42.144;24.794;2023-12-29T08:48:19;154347.19;;;6.91;100.00
5350;BME280;2697;42.144;24.794;2023-12-29T08:50:46;154402.31;;;7.12;100.00
5350;BME280;2697;42.144;24.794;2023-12-29T08:53:11;154412.84;;;7.17;100.00
5350;BME280;2697;42.144;24.794;2023-12-29T08:55:37;154446.97;;;7.30;100.00
5350;BME280;2697;42.144;24.794;2023-12-29T08:58:02;154470.59;;;7.39;100.00
5350;BME280;2697;42.144;24.794;2023-12-29T09:00:28;154515.28;;;7.56;100.00
5350;BME280;2697;42.144;24.794;2023-12-29T09:02:56;154550.72;;;7.70;100.00
5350;BME280;2697;42.144;24.794;2023-12-29T09:05:21;154546.78;;;7.68;100.00
5350;BME280;2697;42.144;24.794;2023-12-29T09:07:46;154599.31;;;7.89;100.00
5350;BME280;2697;42.144;24.794;2023-12-29T09:10:12;154628.22;;;8.00;100.00
5350;BME280;2697;42.144;24.794;2023-12-29T09:12:38;154657.16;;;8.11;100.00
5350;BME280;2697;42.144;24.794;2023-12-29T09:15:04;154686.06;;;8.22;100.00
5350;BME280;2697;42.144;24.794;2023-12-29T09:17:31;154728.19;;;8.39;100.00
5350;BME280;2697;42.144;24.794;2023-12-29T09:19:56;154784.69;;;8.61;100.00
5350;BME280;2697;42.144;24.794;2023-12-29T09:22:22;154809.69;;;8.70;100.00
5350;BME280;2697;42.144;24.794;2023-12-29T09:24:47;154846.50;;;8.84;100.00
5350;BME280;2697;42.144;24.794;2023-12-29T09:27:12;154893.84;;;9.03;100.00
5350;BME280;2697;42.144;24.794;2023-12-29T09:29:39;154900.41;;;9.05;100.00
5350;BME280;2697;42.144;24.794;2023-12-29T09:32:05;154959.59;;;9.28;100.00
5350;BME280;2697;42.144;24.794;2023-12-29T09:34:30;154970.13;;;9.32;100.00
5350;BME280;2697;42.144;24.794;2023-12-29T09:36:56;154985.88;;;9.38;100.00
5350;BME280;2697;42.144;24.794;2023-12-29T09:39:21;154978.00;;;9.35;100.00
5350;BME280;2697;42.144;24.794;2023-12-29T09:41:51;155012.19;;;9.49;100.00
5350;BME280;2697;42.144;24.794;2023-12-29T09:44:20;155050.38;;;9.63;100.00
5350;BME280;2697;42.144;24.794;2023-12-29T09:46:49;155045.13;;;9.61;100.00
5350;BME280;2697;42.144;24.794;2023-12-29T09:49:16;155091.19;;;9.79;100.00
5350;BME280;2697;42.144;24.794;2023-12-29T09:51:43;155087.25;;;9.78;100.00
5350;BME280;2697;42.144;24.794;2023-12-29T09:54:10;155122.75;;;9.91;100.00
5350;BME280;2697;42.144;24.794;2023-12-29T09:56:37;155104.31;;;9.84;97.83
5350;BME280;2697;42.144;24.794;2023-12-29T09:59:03;155145.13;;;10.00;94.36
5350;BME280;2697;42.144;24.794;2023-12-29T10:01:29;155149.06;;;10.02;92.23
5350;BME280;2697;42.144;24.794;2023-12-29T10:03:59;155168.81;;;10.09;94.13
5350;BME280;2697;42.144;24.794;2023-12-29T10:06:25;155207.06;;;10.24;94.88
5350;BME280;2697;42.144;24.794;2023-12-29T10:08:52;155213.63;;;10.26;89.55
5350;BME280;2697;42.144;24.794;2023-12-29T10:11:21;155220.19;;;10.29;91.41
5350;BME280;2697;42.144;24.794;2023-12-29T10:13:47;155272.84;;;10.49;91.29
5350;BME280;2697;42.144;24.794;2023-12-29T10:16:35;155303.16;;;10.61;91.89
5350;BME280;2697;42.144;24.794;2023-12-29T10:19:46;155317.63;;;10.67;89.52
5350;BME280;2697;42.144;24.794;2023-12-29T10:22:30;155322.88;;;10.69;86.11
5350;BME280;2697;42.144;24.794;2023-12-29T10:24:57;155351.91;;;10.80;87.13
5350;BME280;2697;42.144;24.794;2023-12-29T10:27:22;155350.53;;;10.79;84.39
5350;BME280;2697;42.144;24.794;2023-12-29T10:29:48;155357.16;;;10.82;84.10
5350;BME280;2697;42.144;24.794;2023-12-29T10:32:13;155388.75;;;10.94;84.40
5350;BME280;2697;42.144;24.794;2023-12-29T10:34:39;155401.94;;;10.99;81.78
5350;BME280;2697;42.144;24.794;2023-12-29T10:37:04;155420.34;;;11.06;81.73
5350;BME280;2697;42.144;24.794;2023-12-29T10:39:37;155420.34;;;11.06;82.01
5350;BME280;2697;42.144;24.794;2023-12-29T10:42:06;155420.34;;;11.06;81.64
5350;BME280;2697;42.144;24.794;2023-12-29T10:44:37;155457.25;;;11.21;82.45
5350;BME280;2697;42.144;24.794;2023-12-29T10:47:09;155448.06;;;11.17;80.07
5350;BME280;2697;42.144;24.794;2023-12-29T10:49:35;155484.91;;;11.31;80.85
5350;BME280;2697;42.144;24.794;2023-12-29T10:52:10;155495.47;;;11.35;80.47
5350;BME280;2697;42.144;24.794;2023-12-29T10:54:36;155512.56;;;11.42;78.71
5350;BME280;2697;42.144;24.794;2023-12-29T10:57:02;155523.16;;;11.46;76.71
5350;BME280;2697;42.144;24.794;2023-12-29T10:59:28;155536.28;;;11.51;76.00
5350;BME280;2697;42.144;24.794;2023-12-29T11:01:54;155570.59;;;11.64;76.86
5350;BME280;2697;42.144;24.794;2023-12-29T11:04:22;155598.25;;;11.75;75.80
5350;BME280;2697;42.144;24.794;2023-12-29T11:06:48;155603.50;;;11.77;73.82
5350;BME280;2697;42.144;24.794;2023-12-29T11:09:32;155637.81;;;11.90;74.46
5350;BME280;2697;42.144;24.794;2023-12-29T11:12:01;155649.69;;;11.95;74.66
5350;BME280;2697;42.144;24.794;2023-12-29T11:14:27;155673.44;;;12.04;74.44
5350;BME280;2697;42.144;24.794;2023-12-29T11:16:54;155710.31;;;12.18;75.54
5350;BME280;2697;42.144;24.794;2023-12-29T11:19:20;155723.53;;;12.23;73.83
5350;BME280;2697;42.144;24.794;2023-12-29T11:21:46;155745.94;;;12.32;75.17
5350;BME280;2697;42.144;24.794;2023-12-29T11:24:14;155747.25;;;12.33;73.94
5350;BME280;2697;42.144;24.794;2023-12-29T11:26:40;155755.16;;;12.36;75.13
5350;BME280;2697;42.144;24.794;2023-12-29T11:29:08;155776.25;;;12.44;74.34
5350;BME280;2697;42.144;24.794;2023-12-29T11:31:33;155781.53;;;12.46;73.34
5350;BME280;2697;42.144;24.794;2023-12-29T11:34:06;155829.00;;;12.64;72.92
5350;BME280;2697;42.144;24.794;2023-12-29T11:36:40;155829.00;;;12.64;72.19
5350;BME280;2697;42.144;24.794;2023-12-29T11:42:07;155854.06;;;12.74;71.34
5350;BME280;2697;42.144;24.794;2023-12-29T11:44:37;155889.69;;;12.88;71.79
5350;BME280;2697;42.144;24.794;2023-12-29T11:47:03;155889.69;;;12.88;69.04
5350;BME280;2697;42.144;24.794;2023-12-29T11:49:58;155916.09;;;12.98;68.81
5350;BME280;2697;42.144;24.794;2023-12-29T11:52:37;155939.84;;;13.07;70.76
5350;BME280;2697;42.144;24.794;2023-12-29T11:55:14;155931.94;;;13.04;70.25
5350;BME280;2697;42.144;24.794;2023-12-29T11:57:40;155957.00;;;13.13;68.08
5350;BME280;2697;42.144;24.794;2023-12-29T12:00:07;155972.84;;;13.20;68.09
5350;BME280;2697;42.144;24.794;2023-12-29T12:02:33;156012.47;;;13.35;67.59
5350;BME280;2697;42.144;24.794;2023-12-29T12:04:59;156004.56;;;13.32;67.11
5350;BME280;2697;42.144;24.794;2023-12-29T12:09:50;156044.09;;;13.47;65.73
5350;BME280;2697;42.144;24.794;2023-12-29T12:12:41;156040.16;;;13.46;64.81
5350;BME280;2697;42.144;24.794;2023-12-29T12:18:02;156041.47;;;13.46;64.45
5350;BME280;2697;42.144;24.794;2023-12-29T12:20:35;156028.31;;;13.41;66.18
5350;BME280;2697;42.144;24.794;2023-12-29T12:23:03;156034.88;;;13.44;64.80
5350;BME280;2697;42.144;24.794;2023-12-29T12:25:31;156050.75;;;13.50;65.01
5350;BME280;2697;42.144;24.794;2023-12-29T12:28:06;156079.78;;;13.61;63.69
5350;BME280;2697;42.144;24.794;2023-12-29T12:30:33;156081.09;;;13.61;63.74
5350;BME280;2697;42.144;24.794;2023-12-29T12:33:03;156070.50;;;13.57;62.31
5350;BME280;2697;42.144;24.794;2023-12-29T12:35:29;156104.84;;;13.71;61.80
5350;BME280;2697;42.144;24.794;2023-12-29T12:38:14;156133.88;;;13.82;60.07
5350;BME280;2697;42.144;24.794;2023-12-29T12:40:45;156132.56;;;13.81;60.42
5350;BME280;2697;42.144;24.794;2023-12-29T12:43:13;156125.97;;;13.79;59.64
5350;BME280;2697;42.144;24.794;2023-12-29T12:45:47;156116.69;;;13.75;59.86
5350;BME280;2697;42.144;24.794;2023-12-29T12:48:23;156104.84;;;13.71;60.88
5350;BME280;2697;42.144;24.794;2023-12-29T12:50:49;156094.25;;;13.66;60.72
5350;BME280;2697;42.144;24.794;2023-12-29T12:53:15;156156.31;;;13.90;60.51
5350;BME280;2697;42.144;24.794;2023-12-29T12:55:48;156188.00;;;14.03;60.02
5350;BME280;2697;42.144;24.794;2023-12-29T12:58:18;156182.72;;;14.01;60.46
5350;BME280;2697;42.144;24.794;2023-12-29T13:00:45;156190.63;;;14.04;59.98
5350;BME280;2697;42.144;24.794;2023-12-29T13:03:10;156164.22;;;13.93;60.06
5350;BME280;2697;42.144;24.794;2023-12-29T13:05:36;156151.06;;;13.88;60.54
5350;BME280;2697;42.144;24.794;2023-12-29T13:08:03;156132.56;;;13.81;60.22
5350;BME280;2697;42.144;24.794;2023-12-29T13:10:30;156133.88;;;13.82;60.24
5350;BME280;2697;42.144;24.794;2023-12-29T13:12:55;156160.28;;;13.92;59.48
5350;BME280;2697;42.144;24.794;2023-12-29T13:15:21;156182.72;;;14.01;59.37
5350;BME280;2697;42.144;24.794;2023-12-29T13:17:51;156181.41;;;14.00;58.89